createdAt,value
2018-06-19T00:00:12.516Z,8.60
2018-06-19T00:02:41.368Z,8.70
2018-06-19T00:05:10.246Z,7.70
2018-06-19T00:07:39.116Z,8.67
2018-06-19T00:10:07.985Z,7.87
2018-06-19T00:12:36.916Z,8.20
2018-06-19T00:15:05.851Z,7.67
2018-06-19T00:17:35.500Z,7.77
2018-06-19T00:20:04.498Z,8.30
2018-06-19T00:22:33.431Z,9.08
2018-06-19T00:25:02.292Z,8.90
2018-06-19T00:27:31.137Z,7.80
2018-06-19T00:30:00.005Z,7.60
2018-06-19T00:32:28.859Z,7.33
2018-06-19T00:34:57.695Z,6.93
2018-06-19T00:37:26.536Z,7.10
2018-06-19T00:39:55.386Z,6.67
2018-06-19T00:42:24.422Z,6.63
2018-06-19T00:44:53.264Z,6.97
2018-06-19T00:47:22.123Z,7.70
2018-06-19T00:49:51.017Z,6.90
2018-06-19T00:52:19.904Z,6.97
2018-06-19T00:54:48.769Z,6.40
2018-06-19T00:57:17.686Z,6.13
2018-06-19T00:59:46.550Z,6.20
2018-06-19T01:02:15.404Z,5.53
2018-06-19T01:04:44.291Z,6.92
2018-06-19T01:07:13.117Z,6.20
2018-06-19T01:09:41.992Z,5.53
2018-06-19T01:12:10.844Z,6.53
2018-06-19T01:14:39.731Z,6.23
2018-06-19T01:17:08.613Z,5.87
2018-06-19T01:19:37.484Z,6.13
2018-06-19T01:22:06.370Z,5.90
2018-06-19T01:24:35.198Z,5.90
2018-06-19T01:27:04.066Z,5.57
2018-06-19T01:29:32.946Z,5.80
2018-06-19T01:32:01.786Z,6.10
2018-06-19T01:34:30.619Z,6.20
2018-06-19T01:36:59.450Z,5.87
2018-06-19T01:39:28.280Z,6.60
2018-06-19T01:41:57.152Z,5.70
2018-06-19T01:44:25.986Z,6.07
2018-06-19T01:46:54.884Z,6.33
2018-06-19T01:49:59.672Z,6.37
2018-06-19T01:52:28.557Z,6.50
2018-06-19T01:54:57.390Z,6.77
2018-06-19T01:57:26.284Z,7.03
2018-06-19T01:59:55.144Z,7.03
2018-06-19T02:02:23.979Z,6.70
2018-06-19T02:04:52.837Z,7.17
2018-06-19T02:07:21.683Z,6.70
2018-06-19T02:09:50.548Z,7.00
2018-06-19T02:12:19.593Z,6.93
2018-06-19T02:14:48.467Z,7.20
2018-06-19T02:17:17.323Z,6.80
2018-06-19T02:19:46.204Z,7.67
2018-06-19T02:22:15.066Z,7.73
2018-06-19T02:24:43.944Z,7.60
2018-06-19T02:27:12.791Z,7.33
2018-06-19T02:29:41.653Z,7.37
2018-06-19T02:32:10.520Z,8.10
2018-06-19T02:34:39.680Z,7.27
2018-06-19T02:37:08.554Z,7.90
2018-06-19T02:39:37.415Z,7.40
2018-06-19T02:42:06.310Z,8.23
2018-06-19T02:44:35.168Z,7.43
2018-06-19T02:47:04.038Z,7.63
2018-06-19T02:49:32.889Z,8.67
2018-06-19T02:52:01.785Z,8.87
2018-06-19T02:54:31.239Z,7.60
2018-06-19T02:57:00.199Z,8.60
2018-06-19T02:59:29.067Z,7.90
2018-06-19T03:01:57.938Z,8.03
2018-06-19T03:04:26.837Z,8.50
2018-06-19T03:06:55.808Z,8.03
2018-06-19T03:09:24.731Z,8.57
2018-06-19T03:11:53.546Z,8.53
2018-06-19T03:14:22.421Z,9.07
2018-06-19T03:16:51.297Z,9.40
2018-06-19T03:19:20.207Z,8.80
2018-06-19T03:21:49.065Z,9.20
2018-06-19T03:24:17.899Z,9.10
2018-06-19T03:26:46.772Z,10.10
2018-06-19T03:29:15.660Z,9.80
2018-06-19T03:31:44.556Z,9.93
2018-06-19T03:34:13.460Z,10.20
2018-06-19T03:36:42.429Z,10.40
2018-06-19T03:39:12.168Z,10.23
2018-06-19T03:41:44.225Z,10.57
2018-06-19T03:44:13.107Z,11.00
2018-06-19T03:46:42.087Z,11.23
2018-06-19T03:49:10.981Z,11.10
2018-06-19T03:51:39.864Z,11.40
2018-06-19T03:54:08.759Z,12.07
2018-06-19T03:56:37.651Z,12.33
2018-06-19T03:59:06.536Z,11.77
2018-06-19T04:01:35.538Z,12.53
2018-06-19T04:04:04.421Z,12.40
2018-06-19T04:06:33.312Z,13.10
2018-06-19T04:09:04.944Z,13.87
2018-06-19T04:11:33.858Z,12.50
2018-06-19T04:14:02.740Z,12.90
2018-06-19T04:16:31.686Z,12.43
2018-06-19T04:19:00.626Z,16.73
2018-06-19T04:21:29.539Z,14.63
2018-06-19T04:23:58.415Z,14.47
2018-06-19T04:26:27.300Z,14.37
2018-06-19T04:28:56.154Z,15.20
2018-06-19T04:31:24.992Z,15.27
2018-06-19T04:33:53.891Z,15.33
2018-06-19T04:36:22.756Z,15.10
2018-06-19T04:38:51.624Z,15.17
2018-06-19T04:41:20.495Z,16.23
2018-06-19T04:43:49.374Z,16.27
2018-06-19T04:46:21.104Z,17.10
2018-06-19T04:48:49.999Z,16.97
2018-06-19T04:51:18.871Z,17.27
2018-06-19T04:53:47.737Z,18.70
2018-06-19T04:56:16.646Z,18.23
2018-06-19T04:58:45.432Z,18.73
2018-06-19T05:01:14.321Z,18.33
2018-06-19T05:03:43.271Z,22.65
2018-06-19T05:06:12.047Z,19.80
2018-06-19T05:08:41.025Z,19.87
2018-06-19T05:11:09.897Z,21.10
2018-06-19T05:13:38.786Z,20.57
2018-06-19T05:16:07.694Z,21.63
2018-06-19T05:18:36.574Z,21.20
2018-06-19T05:21:05.482Z,22.50
2018-06-19T05:23:34.353Z,22.97
2018-06-19T05:26:03.314Z,22.97
2018-06-19T05:28:32.166Z,27.65
2018-06-19T05:31:03.974Z,23.03
2018-06-19T05:33:32.821Z,23.07
2018-06-19T05:36:01.662Z,24.60
2018-06-19T05:38:30.522Z,24.37
2018-06-19T05:40:59.366Z,24.13
2018-06-19T05:43:28.247Z,24.33
2018-06-19T05:45:57.131Z,25.40
2018-06-19T05:48:25.999Z,25.40
2018-06-19T05:50:54.949Z,24.00
2018-06-19T05:53:26.708Z,24.63
2018-06-19T05:55:55.576Z,25.97
2018-06-19T05:58:24.429Z,25.37
2018-06-19T06:00:53.321Z,25.03
2018-06-19T06:03:22.169Z,26.23
2018-06-19T06:05:51.191Z,25.50
2018-06-19T06:08:20.022Z,26.77
2018-06-19T06:10:48.913Z,26.90
2018-06-19T06:13:17.850Z,27.23
2018-06-19T06:15:46.943Z,32.73
2018-06-19T06:18:15.830Z,29.83
2018-06-19T06:20:44.930Z,27.83
2018-06-19T06:23:13.788Z,29.23
2018-06-19T06:25:42.679Z,29.60
2018-06-19T06:28:11.510Z,29.37
2018-06-19T06:30:40.417Z,31.00
2018-06-19T06:33:09.503Z,30.73
2018-06-19T06:35:38.393Z,31.80
2018-06-19T06:38:07.237Z,31.47
2018-06-19T06:40:36.196Z,30.47
2018-06-19T06:43:05.079Z,30.50
2018-06-19T06:45:33.908Z,32.43
2018-06-19T06:48:02.795Z,31.13
2018-06-19T06:50:31.780Z,31.77
2018-06-19T06:53:00.577Z,30.47
2018-06-19T06:55:29.449Z,30.40
2018-06-19T06:57:58.502Z,30.97
2018-06-19T07:00:27.367Z,31.13
2018-06-19T07:02:56.295Z,30.53
2018-06-19T07:05:25.108Z,32.10
2018-06-19T07:07:54.008Z,32.57
2018-06-19T07:10:22.842Z,31.90
2018-06-19T07:12:51.728Z,32.07
2018-06-19T07:15:21.424Z,32.73
2018-06-19T07:17:50.377Z,32.27
2018-06-19T07:20:19.512Z,32.80
2018-06-19T07:22:48.450Z,31.27
2018-06-19T07:25:17.410Z,34.00
2018-06-19T07:27:46.332Z,32.30
2018-06-19T07:30:15.194Z,32.60
2018-06-19T07:32:44.084Z,32.37
2018-06-19T07:35:12.939Z,32.43
2018-06-19T07:37:41.928Z,32.97
2018-06-19T07:40:11.106Z,31.40
2018-06-19T07:42:40.099Z,31.70
2018-06-19T07:45:08.961Z,31.43
2018-06-19T07:47:37.836Z,31.20
2018-06-19T07:50:06.716Z,31.37
2018-06-19T07:52:35.663Z,29.67
2018-06-19T07:55:04.541Z,29.73
2018-06-19T07:57:33.396Z,29.10
2018-06-19T08:00:05.121Z,27.37
2018-06-19T08:02:33.950Z,27.90
2018-06-19T08:05:02.840Z,31.75
2018-06-19T08:07:31.737Z,28.37
2018-06-19T08:10:00.706Z,26.23
2018-06-19T08:12:29.630Z,25.03
2018-06-19T08:14:58.591Z,26.23
2018-06-19T08:17:27.465Z,26.60
2018-06-19T08:19:56.393Z,24.47
2018-06-19T08:22:25.294Z,29.65
2018-06-19T08:24:54.306Z,24.87
2018-06-19T08:27:23.169Z,24.53
2018-06-19T08:29:55.248Z,27.55
2018-06-19T08:32:24.215Z,23.70
2018-06-19T08:34:53.014Z,22.53
2018-06-19T08:37:21.909Z,22.03
2018-06-19T08:39:50.809Z,22.03
2018-06-19T08:42:19.705Z,21.30
2018-06-19T08:44:48.670Z,21.80
2018-06-19T08:47:17.597Z,22.60
2018-06-19T08:49:46.458Z,20.87
2018-06-19T08:52:15.347Z,20.87
2018-06-19T08:54:44.200Z,21.67
2018-06-19T08:57:13.424Z,20.57
2018-06-19T08:59:42.548Z,21.07
2018-06-19T09:02:11.532Z,21.80
2018-06-19T09:04:42.172Z,22.57
2018-06-19T09:07:18.444Z,22.00
2018-06-19T09:09:47.397Z,22.37
2018-06-19T09:12:16.482Z,20.67
2018-06-19T09:14:45.304Z,20.53
2018-06-19T09:17:14.495Z,22.53
2018-06-19T09:19:45.178Z,21.73
2018-06-19T09:22:14.225Z,21.20
2018-06-19T09:24:43.116Z,21.27
2018-06-19T09:27:12.063Z,20.93
2018-06-19T09:29:41.358Z,21.33
2018-06-19T09:32:11.387Z,19.70
2018-06-19T09:34:45.212Z,20.07
2018-06-19T09:37:13.798Z,20.30
2018-06-19T09:39:46.127Z,19.93
2018-06-19T09:42:19.912Z,19.73
2018-06-19T09:44:53.903Z,19.57
2018-06-19T09:47:22.557Z,18.53
2018-06-19T09:49:56.480Z,16.80
2018-06-19T09:52:29.480Z,15.20
2018-06-19T09:55:02.593Z,15.43
2018-06-19T09:57:36.558Z,12.23
2018-06-19T10:00:08.798Z,13.53
2018-06-19T10:02:38.040Z,11.90
2018-06-19T10:05:07.211Z,10.80
2018-06-19T10:07:36.078Z,11.93
2018-06-19T10:10:05.120Z,11.53
2018-06-19T10:12:37.846Z,11.43
2018-06-19T10:15:06.813Z,11.67
2018-06-19T10:17:37.741Z,11.37
2018-06-19T10:20:05.875Z,10.30
2018-06-19T10:22:40.843Z,9.97
2018-06-19T10:25:10.139Z,12.97
2018-06-19T10:27:41.380Z,15.03
2018-06-19T10:30:10.268Z,17.97
2018-06-19T10:32:39.174Z,17.27
2018-06-19T10:35:08.064Z,17.77
2018-06-19T10:37:40.013Z,18.37
2018-06-19T10:40:08.947Z,18.50
2018-06-19T10:42:37.887Z,20.40
2018-06-19T10:45:06.768Z,18.87
2018-06-19T10:47:35.722Z,19.13
2018-06-19T10:50:04.664Z,17.83
2018-06-19T10:52:33.765Z,16.87
2018-06-19T10:55:02.624Z,16.90
2018-06-19T10:57:31.559Z,12.97
2018-06-19T11:00:06.067Z,10.40
2018-06-19T11:02:36.628Z,11.27
2018-06-19T11:05:06.548Z,12.03
2018-06-19T11:07:37.985Z,10.23
2018-06-19T11:10:05.709Z,10.67
2018-06-19T11:12:35.777Z,9.70
2018-06-19T11:15:07.668Z,9.07
2018-06-19T11:17:39.026Z,8.20
2018-06-19T11:20:08.518Z,7.77
2018-06-19T11:22:37.750Z,7.27
2018-06-19T11:25:07.876Z,6.53
2018-06-19T11:27:41.084Z,6.30
2018-06-19T11:30:10.959Z,6.33
2018-06-19T11:32:45.394Z,6.60
2018-06-19T11:35:13.107Z,5.63
2018-06-19T11:37:43.913Z,4.57
2018-06-19T11:40:13.474Z,5.27
2018-06-19T11:42:42.619Z,4.83
2018-06-19T11:45:14.166Z,4.73
2018-06-19T11:47:47.019Z,4.20
2018-06-19T11:50:19.389Z,4.80
2018-06-19T11:53:01.241Z,4.50
2018-06-19T11:55:30.230Z,4.30
2018-06-19T11:58:00.069Z,4.12
2018-06-19T12:00:27.254Z,4.43
2018-06-19T12:02:56.480Z,4.80
2018-06-19T12:05:26.314Z,5.00
2018-06-19T12:08:01.572Z,4.57
2018-06-19T12:10:33.448Z,5.20
2018-06-19T12:13:02.329Z,4.80
2018-06-19T12:15:31.195Z,4.50
2018-06-19T12:18:00.131Z,5.00
2018-06-19T12:20:29.041Z,5.37
2018-06-19T12:22:57.954Z,5.23
2018-06-19T12:25:26.802Z,5.47
2018-06-19T12:27:57.335Z,7.00
2018-06-19T12:30:26.172Z,6.47
2018-06-19T12:32:55.103Z,6.90
2018-06-19T12:35:25.757Z,5.83
2018-06-19T12:37:52.835Z,5.67
2018-06-19T12:40:26.333Z,6.10
2018-06-19T12:42:55.266Z,5.60
2018-06-19T12:45:24.064Z,5.93
2018-06-19T12:47:52.947Z,6.03
2018-06-19T12:50:58.464Z,5.07
2018-06-19T12:54:03.605Z,5.60
2018-06-19T12:56:44.612Z,6.33
2018-06-19T12:59:06.978Z,5.90
2018-06-19T13:01:35.903Z,5.70
2018-06-19T13:04:41.597Z,5.13
2018-06-19T13:07:10.564Z,6.10
2018-06-19T13:09:39.576Z,4.80
2018-06-19T13:13:04.856Z,4.73
2018-06-19T13:15:33.817Z,5.37
2018-06-19T13:18:40.582Z,4.93
2018-06-19T13:21:09.452Z,4.80
2018-06-19T13:23:38.416Z,4.30
2018-06-19T13:26:07.397Z,5.03
2018-06-19T13:29:20.869Z,4.20
2018-06-19T13:31:53.219Z,4.50
2018-06-19T13:34:22.056Z,5.40
2018-06-19T13:36:50.938Z,4.50
2018-06-19T13:39:20.546Z,4.47
2018-06-19T13:42:42.001Z,4.83
2018-06-19T13:45:12.928Z,5.03
2018-06-19T13:47:44.124Z,4.77
2018-06-19T13:50:13.012Z,4.87
2018-06-19T13:52:43.402Z,4.77
2018-06-19T13:55:51.073Z,4.67
2018-06-19T13:58:24.234Z,5.17
2018-06-19T14:00:53.124Z,5.60
2018-06-19T14:03:22.022Z,5.33
2018-06-19T14:05:50.885Z,5.23
2018-06-19T14:08:54.829Z,5.20
2018-06-19T14:12:18.109Z,4.80
2018-06-19T14:14:46.925Z,5.50
2018-06-19T14:17:15.794Z,5.50
2018-06-19T14:19:58.203Z,5.80
2018-06-19T14:22:26.350Z,5.23
2018-06-19T14:24:55.447Z,5.70
2018-06-19T14:27:24.566Z,4.95
2018-06-19T14:29:53.467Z,5.40
2018-06-19T14:32:22.379Z,5.77
2018-06-19T14:35:09.097Z,5.27
2018-06-19T14:37:37.947Z,4.97
2018-06-19T14:40:06.991Z,5.57
2018-06-19T14:42:36.192Z,5.43
2018-06-19T14:45:05.843Z,5.83
2018-06-19T14:47:34.693Z,5.67
2018-06-19T14:50:03.546Z,5.30
2018-06-19T14:52:32.414Z,6.53
2018-06-19T14:55:01.327Z,6.40
2018-06-19T14:57:30.276Z,6.90
2018-06-19T14:59:59.380Z,6.63
2018-06-19T15:02:28.205Z,6.40
2018-06-19T15:04:57.079Z,6.57
2018-06-19T15:07:25.945Z,7.25
2018-06-19T15:09:54.829Z,6.47
2018-06-19T15:12:23.593Z,6.30
2018-06-19T15:14:52.468Z,6.30
2018-06-19T15:17:21.433Z,6.90
2018-06-19T15:19:53.370Z,6.80
2018-06-19T15:22:22.236Z,6.33
2018-06-19T15:24:51.100Z,7.53
2018-06-19T15:27:20.020Z,7.23
2018-06-19T15:29:48.888Z,6.87
2018-06-19T15:32:17.746Z,6.63
2018-06-19T15:34:46.594Z,5.80
2018-06-19T15:37:15.481Z,6.93
2018-06-19T15:39:45.533Z,6.53
2018-06-19T15:42:19.550Z,8.33
2018-06-19T15:44:52.295Z,8.33
2018-06-19T15:47:23.509Z,8.50
2018-06-19T15:49:57.750Z,8.50
2018-06-19T15:52:30.106Z,8.37
2018-06-19T15:55:04.661Z,9.07
2018-06-19T15:57:36.183Z,9.03
2018-06-19T16:00:05.371Z,8.87
2018-06-19T16:02:34.286Z,8.27
2018-06-19T16:05:03.272Z,8.37
2018-06-19T16:07:32.164Z,8.73
2018-06-19T16:10:01.020Z,8.53
2018-06-19T16:12:29.842Z,8.80
2018-06-19T16:14:58.865Z,9.70
2018-06-19T16:17:27.677Z,7.73
2018-06-19T16:19:56.587Z,9.67
2018-06-19T16:22:25.503Z,8.70
2018-06-19T16:24:57.133Z,9.03
2018-06-19T16:27:25.994Z,8.37
2018-06-19T16:29:54.917Z,9.00
2018-06-19T16:32:23.742Z,7.73
2018-06-19T16:34:52.622Z,8.50
2018-06-19T16:37:21.449Z,8.00
2018-06-19T16:39:50.284Z,8.33
2018-06-19T16:42:19.391Z,7.87
2018-06-19T16:44:48.282Z,7.80
2018-06-19T16:47:18.693Z,8.33
2018-06-19T16:49:50.879Z,8.53
2018-06-19T16:52:25.583Z,9.10
2018-06-19T16:54:54.647Z,7.70
2018-06-19T16:57:23.507Z,7.30
2018-06-19T16:59:52.498Z,7.30
2018-06-19T17:02:21.507Z,7.70
2018-06-19T17:04:50.385Z,7.37
2018-06-19T17:07:19.302Z,7.23
2018-06-19T17:09:48.161Z,7.33
2018-06-19T17:12:17.064Z,7.60
2018-06-19T17:14:46.243Z,7.00
2018-06-19T17:17:15.113Z,7.73
2018-06-19T17:19:43.997Z,21.67
2018-06-19T17:22:12.924Z,13.20
2018-06-19T17:24:41.847Z,7.87
2018-06-19T17:27:10.981Z,7.97
2018-06-19T17:29:41.234Z,8.30
2018-06-19T17:32:10.203Z,7.83
2018-06-19T17:34:39.094Z,7.23
2018-06-19T17:37:08.020Z,46.80
2018-06-19T17:39:36.945Z,8.83
2018-06-19T17:42:06.043Z,7.40
2018-06-19T17:44:34.960Z,7.10
2018-06-19T17:47:06.138Z,22.77
2018-06-19T17:49:40.959Z,10.47
2018-06-19T17:52:11.206Z,8.50
2018-06-19T17:54:40.124Z,7.10
2018-06-19T17:57:09.022Z,6.93
2018-06-19T17:59:41.010Z,7.40
2018-06-19T18:02:10.011Z,7.03
2018-06-19T18:04:39.746Z,8.35
2018-06-19T18:07:08.515Z,7.40
2018-06-19T18:09:39.038Z,7.47
2018-06-19T18:12:07.956Z,6.57
2018-06-19T18:14:36.899Z,7.10
2018-06-19T18:17:05.806Z,7.60
2018-06-19T18:19:34.708Z,7.47
2018-06-19T18:22:03.603Z,6.80
2018-06-19T18:24:32.498Z,7.77
2018-06-19T18:27:01.426Z,7.47
2018-06-19T18:29:30.382Z,61.23
2018-06-19T18:31:59.255Z,88.17
2018-06-19T18:34:28.212Z,12.57
2018-06-19T18:36:57.233Z,8.27
2018-06-19T18:39:26.261Z,8.00
2018-06-19T18:41:55.397Z,9.00
2018-06-19T18:44:24.255Z,7.60
2018-06-19T18:46:56.017Z,7.13
2018-06-19T18:49:29.753Z,8.03
2018-06-19T18:52:09.373Z,9.03
2018-06-19T18:54:36.327Z,8.63
2018-06-19T18:57:05.356Z,8.80
2018-06-19T18:59:39.178Z,8.17
2018-06-19T19:02:08.148Z,9.78
2018-06-19T19:04:37.138Z,7.60
2018-06-19T19:07:09.052Z,8.13
2018-06-19T19:09:38.098Z,8.23
2018-06-19T19:12:10.160Z,8.30
2018-06-19T19:14:56.986Z,8.27
2018-06-19T19:17:43.727Z,8.77
2018-06-19T19:20:12.629Z,8.07
2018-06-19T19:22:41.497Z,8.13
2018-06-19T19:25:10.446Z,8.07
2018-06-19T19:27:57.474Z,8.50
2018-06-19T19:30:26.350Z,9.43
2018-06-19T19:32:55.489Z,8.23
2018-06-19T19:35:24.471Z,9.70
2018-06-19T19:38:11.054Z,7.40
2018-06-19T19:40:43.018Z,7.87
2018-06-19T19:43:11.948Z,8.00
2018-06-19T19:45:43.570Z,7.00
2018-06-19T19:48:30.381Z,8.10
2018-06-19T19:50:59.807Z,7.60
2018-06-19T19:53:31.948Z,8.17
2018-06-19T19:56:18.448Z,7.30
2018-06-19T19:58:51.056Z,7.17
2018-06-19T20:01:19.988Z,6.90
2018-06-19T20:03:49.231Z,7.80
2018-06-19T20:06:18.204Z,7.10
2018-06-19T20:08:47.157Z,13.67
2018-06-19T20:11:16.095Z,8.07
2018-06-19T20:13:45.358Z,6.77
2018-06-19T20:16:14.268Z,5.70
2018-06-19T20:18:43.394Z,10.70
2018-06-19T20:21:12.466Z,6.53
2018-06-19T20:23:41.480Z,10.40
2018-06-19T20:26:10.383Z,7.67
2018-06-19T20:28:39.259Z,7.60
2018-06-19T20:31:08.196Z,7.40
2018-06-19T20:33:37.142Z,7.80
2018-06-19T20:37:02.701Z,8.60
2018-06-19T20:39:29.551Z,7.77
2018-06-19T20:41:58.483Z,8.20
2018-06-19T20:44:27.439Z,9.20
2018-06-19T20:46:56.269Z,9.20
2018-06-19T20:49:25.231Z,8.70
2018-06-19T20:51:54.231Z,31.97
2018-06-19T20:54:23.233Z,9.13
2018-06-19T20:56:54.508Z,9.93
2018-06-19T20:59:23.570Z,8.77
2018-06-19T21:01:52.570Z,8.60
2018-06-19T21:04:24.756Z,9.20
2018-06-19T21:06:53.855Z,9.87
2018-06-19T21:09:24.669Z,9.93
2018-06-19T21:11:51.993Z,9.03
2018-06-19T21:14:20.924Z,8.87
2018-06-19T21:16:49.961Z,8.60
2018-06-19T21:19:25.027Z,9.90
2018-06-19T21:21:54.131Z,10.10
2018-06-19T21:24:24.896Z,9.33
2018-06-19T21:26:52.391Z,9.27
2018-06-19T21:29:21.450Z,8.67
2018-06-19T21:31:50.391Z,9.87
2018-06-19T21:34:19.368Z,8.90
2018-06-19T21:36:48.394Z,14.93
2018-06-19T21:39:17.443Z,9.67
2018-06-19T21:41:46.394Z,9.40
2018-06-19T21:44:15.305Z,9.10
2018-06-19T21:46:44.800Z,8.70
2018-06-19T21:49:16.453Z,9.30
2018-06-19T21:51:47.924Z,8.50
2018-06-19T21:54:17.765Z,8.70
2018-06-19T21:56:46.750Z,9.63
2018-06-19T21:59:15.657Z,7.77
2018-06-19T22:01:44.671Z,7.73
2018-06-19T22:04:13.540Z,8.03
2018-06-19T22:06:42.466Z,7.30
2018-06-19T22:09:11.731Z,7.03
2018-06-19T22:11:41.002Z,7.93
2018-06-19T22:14:10.132Z,8.30
2018-06-19T22:16:39.105Z,7.73
2018-06-19T22:19:08.047Z,9.13
2018-06-19T22:21:38.160Z,8.10
2018-06-19T22:24:07.136Z,8.23
2018-06-19T22:26:36.041Z,8.70
2018-06-19T22:29:05.044Z,7.93
2018-06-19T22:31:34.032Z,7.87
2018-06-19T22:34:05.431Z,7.37
2018-06-19T22:36:34.481Z,7.80
2018-06-19T22:39:03.840Z,8.27
2018-06-19T22:41:32.761Z,8.90
2018-06-19T22:44:01.909Z,10.15
2018-06-19T22:46:30.748Z,8.83
2018-06-19T22:49:00.564Z,8.17
2018-06-19T22:51:31.912Z,8.53
2018-06-19T22:54:02.047Z,8.50
2018-06-19T22:56:32.960Z,8.23
2018-06-19T22:58:59.838Z,9.00
2018-06-19T23:01:28.812Z,9.87
2018-06-19T23:03:57.738Z,9.70
2018-06-19T23:06:26.652Z,8.80
2018-06-19T23:08:55.632Z,8.23
2018-06-19T23:11:24.534Z,9.03
2018-06-19T23:13:53.510Z,8.20
2018-06-19T23:16:22.433Z,8.13
2018-06-19T23:18:51.354Z,9.00
2018-06-19T23:21:20.224Z,8.43
2018-06-19T23:23:50.811Z,9.03
2018-06-19T23:26:19.728Z,8.03
2018-06-19T23:28:48.624Z,9.43
2018-06-19T23:31:17.622Z,10.63
2018-06-19T23:33:46.524Z,11.40
2018-06-19T23:36:15.418Z,11.60
2018-06-19T23:38:44.426Z,11.33
2018-06-19T23:41:13.381Z,11.27
2018-06-19T23:43:42.403Z,12.40
2018-06-19T23:46:11.386Z,12.03
2018-06-19T23:48:40.964Z,12.10
2018-06-19T23:51:10.877Z,10.90
2018-06-19T23:53:39.755Z,11.30
2018-06-19T23:56:08.688Z,12.57
2018-06-19T23:58:37.737Z,11.20
